Aeroporto :
LOGIN :

Iscrizione | Disclaimer

   EN    FR    IT 

 










Sommario :    VFR   VFR Marginale   IFR   IFR Intensivo   IFR Molto Intensivo
Visibilità : 
Base nubi : 
>= 8 km
>= 3000ft
5 / 8 km
1000 / 3000 ft
1500m / 5 km
500 / 1000 ft
800 / 1500m
200 / 500 ft
< 800m
< 200 ft
Simboli :   Temporali  Nebbia  Neve Forte  Precipitazioni Forti  Vento > 20 kt
SIGMETs :   Varie  Temporali  Ghiacco  Turbolenza  Onda orograficha  Ceneri Vulcaniche







- Altitudine del aeroporto : 1768 ft


LEHC - Huesca Pirineos

ULTIMO METAR :
  • 231700Z VRB02KT 9000 RA FEW040 SCT067 14/13 Q1020

METARs OBSOLETI :
  • 231648Z VRB02KT 6000 RA FEW050 BKN067 14/13 Q1021
  • 231630Z 35003KT 290V020 9999 -RA FEW050 BKN068 14/13 Q1021
  • 231600Z 14003KT 080V170 9999 -RA FEW050 BKN060 15/13 Q1021
  • 231550Z 16003KT 100V200 9999 RA FEW050 BKN065 15/13 Q1021
  • 231530Z 14004KT 110V170 9999 -RA FEW040 BKN065 15/13 Q1021
  • 231500Z 19003KT 130V240 9999 -RA FEW040 BKN065 15/12 Q1021
  • 231430Z VRB02KT 9999 -RA SCT040 SCT068 16/12 Q1020

TAF TAF LEHC
Valido dal 23 a 09 ore il 24 a 09 ore UTC


230800Z 2309/2409 08008KT 9999 FEW040 TX22/2313Z TN12/2406Z
TEMPO 2310/2317 15009KT
PROB40
TEMPO 2312/2318 SHRA FEW030TCU SCT040
Nessun NOTAM noto per questo aeroporto.



MetMap, La meteo Aeronautica in un colpo d'occhio ! - Copyright ORBIFLY Dicembre 2007 - Disclaimer

ORBIFLY MET'MAP TEAM :

Programmazione e sviluppo : Alexandra Zaïnal
Concezione e sviluppo : Baudouin d'Aumeries
Co-Programmazione e sviluppo : Marc-Olivier Méhu
Supporto tecnico e logistico : Manuel Goepfert
Aiuto per la traduzione : Arnaldo La Scala

Contatto : metmap@orbifly.com




FONTI E CREDITI :

   NOAA